createdAt,value
2023-02-21T00:01:06.684Z,7.46
2023-02-21T00:04:27.326Z,7.46
2023-02-21T00:07:18.390Z,7.48
2023-02-21T00:10:19.605Z,7.49
2023-02-21T00:13:36.738Z,7.49
2023-02-21T00:16:44.012Z,7.49
2023-02-21T00:20:09.154Z,7.51
2023-02-21T00:23:21.938Z,7.55
2023-02-21T00:27:01.275Z,7.57
2023-02-21T00:29:55.251Z,7.61
2023-02-21T00:32:51.497Z,7.65
2023-02-21T00:36:29.528Z,7.67
2023-02-21T00:39:42.224Z,7.68
2023-02-21T00:42:52.695Z,7.68
2023-02-21T00:46:36.948Z,7.68
2023-02-21T00:49:40.927Z,7.69
2023-02-21T00:53:48.754Z,7.70
2023-02-21T01:00:15.955Z,7.70
2023-02-21T01:03:26.680Z,7.71
2023-02-21T01:06:58.844Z,7.70
2023-02-21T01:09:49.721Z,7.70
2023-02-21T01:12:51.802Z,7.69
2023-02-21T01:16:16.853Z,7.69
2023-02-21T01:19:17.178Z,7.67
2023-02-21T01:22:54.058Z,7.67
2023-02-21T01:26:46.806Z,7.67
2023-02-21T01:30:09.113Z,7.67
2023-02-21T01:34:29.348Z,7.63
2023-02-21T01:38:24.920Z,7.60
2023-02-21T01:57:47.348Z,7.54
2023-02-21T02:01:23.815Z,7.54
2023-02-21T02:04:56.129Z,7.54
2023-02-21T02:12:16.357Z,7.54
2023-02-21T02:16:10.837Z,7.52
2023-02-21T02:19:46.166Z,7.50
2023-02-21T02:22:52.454Z,7.50
2023-02-21T02:25:56.912Z,7.50
2023-02-21T02:28:55.024Z,7.51
2023-02-21T02:32:30.268Z,7.52
2023-02-21T02:35:14.162Z,7.52
2023-02-21T02:39:00.692Z,7.52
2023-02-21T02:42:31.929Z,7.53
2023-02-21T02:45:45.605Z,7.54
2023-02-21T02:48:34.051Z,7.54
2023-02-21T02:51:32.986Z,7.55
2023-02-21T02:54:32.601Z,7.55
2023-02-21T02:57:13.627Z,7.54
2023-02-21T02:59:53.423Z,7.53
2023-02-21T03:02:39.735Z,7.52
2023-02-21T03:05:34.624Z,7.52
2023-02-21T03:08:52.340Z,7.53
2023-02-21T03:11:56.460Z,7.55
2023-02-21T03:15:11.251Z,7.56
2023-02-21T03:19:02.436Z,7.57
2023-02-21T03:21:43.359Z,7.60
2023-02-21T03:25:17.349Z,7.63
2023-02-21T03:28:18.840Z,7.66
2023-02-21T03:31:00.945Z,7.68
2023-02-21T03:33:52.733Z,7.70
2023-02-21T03:36:50.703Z,7.69
2023-02-21T03:39:51.719Z,7.70
2023-02-21T03:42:37.794Z,7.72
2023-02-21T03:45:16.863Z,7.73
2023-02-21T03:48:26.075Z,7.71
2023-02-21T03:51:14.279Z,7.65
2023-02-21T03:54:38.018Z,7.61
2023-02-21T03:57:13.774Z,7.58
2023-02-21T04:00:09.112Z,7.58
2023-02-21T04:03:18.016Z,7.54
2023-02-21T04:07:07.965Z,7.49
2023-02-21T04:09:31.125Z,7.49
2023-02-21T04:12:32.618Z,7.51
2023-02-21T04:15:20.044Z,7.55
2023-02-21T04:18:10.430Z,7.60
2023-02-21T04:20:57.051Z,7.62
2023-02-21T04:23:36.779Z,7.64
2023-02-21T04:26:08.067Z,7.65
2023-02-21T04:28:44.777Z,7.65
2023-02-21T04:31:37.101Z,7.67
2023-02-21T04:34:25.912Z,7.68
2023-02-21T04:37:05.666Z,7.68
2023-02-21T04:39:35.861Z,7.65
2023-02-21T04:42:19.369Z,7.62
2023-02-21T04:45:24.245Z,7.60
2023-02-21T04:48:42.893Z,7.54
2023-02-21T04:54:36.411Z,7.48
2023-02-21T04:58:13.277Z,7.46
2023-02-21T05:05:44.854Z,7.51
2023-02-21T05:12:40.055Z,7.67
2023-02-21T05:16:06.498Z,7.76
2023-02-21T05:19:13.366Z,7.84
2023-02-21T05:23:13.396Z,7.86
2023-02-21T05:26:31.698Z,7.85
2023-02-21T05:29:08.150Z,7.85
2023-02-21T05:32:48.597Z,7.87
2023-02-21T05:36:41.146Z,7.89
2023-02-21T05:40:10.975Z,7.90
2023-02-21T05:43:12.404Z,7.89
2023-02-21T05:47:08.827Z,7.87
2023-02-21T05:50:33.720Z,7.85
2023-02-21T05:58:02.309Z,7.79
2023-02-21T06:01:18.718Z,7.76
2023-02-21T06:04:09.061Z,7.73
2023-02-21T06:07:31.402Z,7.67
2023-02-21T06:10:59.342Z,7.62
2023-02-21T06:14:27.208Z,7.57
2023-02-21T06:18:01.107Z,7.52
2023-02-21T06:21:10.799Z,7.51
2023-02-21T06:24:15.272Z,7.51
2023-02-21T06:26:50.172Z,7.46
2023-02-21T06:29:45.681Z,7.43
2023-02-21T06:32:48.913Z,7.40
2023-02-21T06:35:30.709Z,7.37
2023-02-21T06:38:08.271Z,7.34
2023-02-21T06:40:37.078Z,7.34
2023-02-21T06:43:10.394Z,7.33
2023-02-21T06:45:58.368Z,7.30
2023-02-21T06:48:35.968Z,7.29
2023-02-21T06:51:10.419Z,7.27
2023-02-21T06:53:39.552Z,7.26
2023-02-21T06:56:13.676Z,7.24
2023-02-21T06:58:44.860Z,7.23
2023-02-21T07:01:24.688Z,7.23
2023-02-21T07:03:53.107Z,7.23
2023-02-21T07:06:22.012Z,7.28
2023-02-21T07:08:54.403Z,7.31
2023-02-21T07:11:54.376Z,7.32
2023-02-21T07:14:28.328Z,7.33
2023-02-21T07:17:38.959Z,7.33
2023-02-21T07:20:20.191Z,7.35
2023-02-21T07:23:10.423Z,7.37
2023-02-21T07:26:04.865Z,7.42
2023-02-21T07:28:48.361Z,7.43
2023-02-21T07:31:46.203Z,7.46
2023-02-21T07:34:32.497Z,7.46
2023-02-21T07:37:11.892Z,7.46
2023-02-21T07:39:49.819Z,7.47
2023-02-21T07:43:03.860Z,7.47
2023-02-21T07:45:46.418Z,7.48
2023-02-21T07:48:15.333Z,7.46
2023-02-21T07:50:54.724Z,7.46
2023-02-21T07:53:42.658Z,7.42
2023-02-21T07:56:11.462Z,7.42
2023-02-21T07:58:54.043Z,7.42
2023-02-21T08:01:38.600Z,7.38
2023-02-21T08:04:24.506Z,7.35
2023-02-21T08:07:05.223Z,7.34
2023-02-21T08:10:09.635Z,7.33
2023-02-21T08:12:44.860Z,7.36
2023-02-21T08:15:20.193Z,7.39
2023-02-21T08:17:55.080Z,7.42
2023-02-21T08:20:39.663Z,7.47
2023-02-21T08:24:14.806Z,7.54
2023-02-21T08:27:01.919Z,7.59
2023-02-21T08:29:49.010Z,7.65
2023-02-21T08:32:32.209Z,7.71
2023-02-21T08:35:17.369Z,7.75
2023-02-21T08:38:08.223Z,7.79
2023-02-21T08:40:52.615Z,7.82
2023-02-21T08:43:24.953Z,7.79
2023-02-21T08:45:59.548Z,7.80
2023-02-21T08:48:31.184Z,7.77
2023-02-21T08:51:08.907Z,7.78
2023-02-21T08:54:04.313Z,7.85
2023-02-21T08:56:53.471Z,7.93
2023-02-21T09:00:01.503Z,8.06
2023-02-21T09:02:36.878Z,8.07
2023-02-21T09:05:31.651Z,8.09
2023-02-21T09:08:42.249Z,8.09
2023-02-21T09:11:47.406Z,8.07
2023-02-21T09:14:37.944Z,8.11
2023-02-21T09:17:35.202Z,8.12
2023-02-21T09:20:54.816Z,8.14
2023-02-21T09:23:39.751Z,8.21
2023-02-21T09:26:37.612Z,8.26
2023-02-21T09:29:59.556Z,8.30
2023-02-21T09:33:00.690Z,8.29
2023-02-21T09:36:13.047Z,8.31
2023-02-21T09:39:30.242Z,8.31
2023-02-21T09:42:11.395Z,8.32
2023-02-21T09:45:04.784Z,8.31
2023-02-21T09:48:50.097Z,8.27
2023-02-21T09:55:21.946Z,8.27
2023-02-21T09:58:41.019Z,8.32
2023-02-21T10:02:11.544Z,8.41
2023-02-21T10:05:43.304Z,8.40
2023-02-21T10:08:46.689Z,8.39
2023-02-21T10:12:00.465Z,8.34
2023-02-21T10:14:56.243Z,8.30
2023-02-21T10:21:59.075Z,8.37
2023-02-21T10:25:24.677Z,8.40
2023-02-21T10:28:50.769Z,8.42
2023-02-21T10:31:26.216Z,8.45
2023-02-21T10:34:12.400Z,8.52
2023-02-21T10:36:52.175Z,8.60
2023-02-21T10:40:09.144Z,8.60
2023-02-21T10:43:48.709Z,8.58
2023-02-21T10:47:05.865Z,8.58
2023-02-21T10:50:12.428Z,8.60
2023-02-21T10:52:56.414Z,8.67
2023-02-21T10:55:48.224Z,8.68
2023-02-21T10:58:34.117Z,8.67
2023-02-21T11:01:33.361Z,8.70
2023-02-21T11:04:44.081Z,8.82
2023-02-21T11:07:36.154Z,8.96
2023-02-21T11:10:33.261Z,9.10
2023-02-21T11:13:32.173Z,9.19
2023-02-21T11:16:14.265Z,9.10
2023-02-21T11:19:12.660Z,9.07
2023-02-21T11:22:23.128Z,9.06
2023-02-21T11:25:27.186Z,8.92
2023-02-21T11:28:43.940Z,8.83
2023-02-21T11:31:54.588Z,8.74
2023-02-21T11:34:30.630Z,8.65
2023-02-21T11:37:44.212Z,8.60
2023-02-21T11:40:42.168Z,8.64
2023-02-21T11:43:42.142Z,8.68
2023-02-21T11:46:44.972Z,8.83
2023-02-21T11:49:23.394Z,8.90
2023-02-21T11:52:44.729Z,8.89
2023-02-21T11:55:24.134Z,8.85
2023-02-21T11:58:19.808Z,8.81
2023-02-21T12:01:20.892Z,8.96
2023-02-21T12:05:16.369Z,9.13
2023-02-21T12:08:59.329Z,9.30
2023-02-21T12:12:02.255Z,9.53
2023-02-21T12:14:51.838Z,9.67
2023-02-21T12:17:52.601Z,9.72
2023-02-21T12:20:58.111Z,9.73
2023-02-21T12:24:48.816Z,9.73
2023-02-21T12:28:17.176Z,9.50
2023-02-21T12:31:35.604Z,9.62
2023-02-21T12:34:20.519Z,9.75
2023-02-21T12:37:55.906Z,9.64
2023-02-21T12:41:09.945Z,9.68
2023-02-21T12:44:30.361Z,9.82
2023-02-21T12:47:15.636Z,9.73
2023-02-21T12:50:27.535Z,9.66
2023-02-21T12:54:00.246Z,9.56
2023-02-21T12:56:56.666Z,9.65
2023-02-21T12:59:43.223Z,9.73
2023-02-21T13:03:18.015Z,9.96
2023-02-21T13:06:32.352Z,10.22
2023-02-21T13:09:41.134Z,9.90
2023-02-21T13:12:56.029Z,9.75
2023-02-21T13:15:31.809Z,9.75
2023-02-21T13:19:04.654Z,9.72
2023-02-21T13:22:19.617Z,9.66
2023-02-21T13:25:44.315Z,9.61
2023-02-21T13:28:39.520Z,9.46
2023-02-21T13:31:40.735Z,9.56
2023-02-21T13:35:14.777Z,10.08
2023-02-21T13:38:32.599Z,10.35
2023-02-21T13:41:34.150Z,9.96
2023-02-21T13:44:49.261Z,10.21
2023-02-21T13:47:24.016Z,10.62
2023-02-21T13:50:46.097Z,10.59
2023-02-21T13:53:54.082Z,10.34
2023-02-21T13:56:49.903Z,10.33
2023-02-21T13:59:44.483Z,10.36
2023-02-21T14:02:26.196Z,10.29
2023-02-21T14:05:02.285Z,10.17
2023-02-21T14:08:20.679Z,10.38
2023-02-21T14:11:12.780Z,10.64
2023-02-21T14:14:00.304Z,10.91
2023-02-21T14:17:05.125Z,10.84
2023-02-21T14:19:39.831Z,10.63
2023-02-21T14:22:28.770Z,10.59
2023-02-21T14:25:16.282Z,10.33
2023-02-21T14:27:48.245Z,10.09
2023-02-21T14:30:39.878Z,9.98
2023-02-21T14:33:36.505Z,9.82
2023-02-21T14:36:10.795Z,9.51
2023-02-21T14:38:46.786Z,9.33
2023-02-21T14:41:21.990Z,9.41
2023-02-21T14:44:21.238Z,9.46
2023-02-21T14:47:33.110Z,9.79
2023-02-21T14:50:52.240Z,9.88
2023-02-21T14:54:38.375Z,10.25
2023-02-21T14:58:11.783Z,10.28
2023-02-21T15:01:07.194Z,9.75
2023-02-21T15:04:07.289Z,9.66
2023-02-21T15:06:46.517Z,9.73
2023-02-21T15:09:27.882Z,9.95
2023-02-21T15:12:16.703Z,10.14
2023-02-21T15:15:27.125Z,10.03
2023-02-21T15:18:36.713Z,9.67
2023-02-21T15:21:44.918Z,9.17
2023-02-21T15:24:20.769Z,9.06
2023-02-21T15:27:32.289Z,9.14
2023-02-21T15:30:23.172Z,9.12
2023-02-21T15:33:29.153Z,9.27
2023-02-21T15:36:26.085Z,9.45
2023-02-21T15:39:50.303Z,9.11
2023-02-21T15:42:47.514Z,8.75
2023-02-21T15:46:08.071Z,8.49
2023-02-21T15:49:22.395Z,8.35
2023-02-21T15:51:57.789Z,8.25
2023-02-21T15:54:40.505Z,8.17
2023-02-21T15:57:21.320Z,8.09
2023-02-21T16:00:38.923Z,8.02
2023-02-21T16:03:40.026Z,7.99
2023-02-21T16:06:26.262Z,7.94
2023-02-21T16:09:36.784Z,7.87
2023-02-21T16:12:17.818Z,7.83
2023-02-21T16:15:16.910Z,7.80
2023-02-21T16:18:16.802Z,7.74
2023-02-21T16:20:46.237Z,7.68
2023-02-21T16:23:55.046Z,7.64
2023-02-21T16:26:31.324Z,7.56
2023-02-21T16:29:04.934Z,7.49
2023-02-21T16:31:36.916Z,7.43
2023-02-21T16:34:08.050Z,7.40
2023-02-21T16:36:41.960Z,7.40
2023-02-21T16:39:19.020Z,7.38
2023-02-21T16:41:57.106Z,7.40
2023-02-21T16:44:58.195Z,7.40
2023-02-21T16:47:27.994Z,7.39
2023-02-21T16:50:07.430Z,7.38
2023-02-21T16:52:35.732Z,7.39
2023-02-21T16:55:04.408Z,7.38
2023-02-21T16:57:33.594Z,7.36
2023-02-21T17:00:02.607Z,7.35
2023-02-21T17:02:36.678Z,7.33
2023-02-21T17:05:05.757Z,7.28
2023-02-21T17:07:34.536Z,7.21
2023-02-21T17:10:45.836Z,7.16
2023-02-21T17:13:17.814Z,7.11
2023-02-21T17:16:02.715Z,7.06
2023-02-21T17:18:52.729Z,7.01
2023-02-21T17:21:37.786Z,7.00
2023-02-21T17:24:33.155Z,6.99
2023-02-21T17:27:01.784Z,6.97
2023-02-21T17:29:40.733Z,6.95
2023-02-21T17:32:14.112Z,6.87
2023-02-21T17:35:24.834Z,6.82
2023-02-21T17:38:15.963Z,6.80
2023-02-21T17:40:53.634Z,6.77
2023-02-21T17:43:27.215Z,6.73
2023-02-21T17:45:57.851Z,6.70
2023-02-21T17:48:26.319Z,6.68
2023-02-21T17:51:01.995Z,6.68
2023-02-21T17:53:34.930Z,6.68
2023-02-21T17:56:36.682Z,6.68
2023-02-21T17:59:08.180Z,6.66
2023-02-21T18:01:37.022Z,6.66
2023-02-21T18:04:26.080Z,6.64
2023-02-21T18:07:36.292Z,6.62
2023-02-21T18:10:05.911Z,6.60
2023-02-21T18:12:41.752Z,6.57
2023-02-21T18:15:19.634Z,6.53
2023-02-21T18:17:48.147Z,6.52
2023-02-21T18:20:39.615Z,6.51
2023-02-21T18:23:11.199Z,6.48
2023-02-21T18:25:50.065Z,6.45
2023-02-21T18:28:26.754Z,6.41
2023-02-21T18:30:56.886Z,6.35
2023-02-21T18:33:28.451Z,6.28
2023-02-21T18:35:58.949Z,6.21
2023-02-21T18:38:28.271Z,6.17
2023-02-21T18:41:10.143Z,6.13
2023-02-21T18:43:46.382Z,6.09
2023-02-21T18:46:27.486Z,6.08
2023-02-21T18:48:59.341Z,6.07
2023-02-21T18:51:37.593Z,6.04
2023-02-21T18:54:54.057Z,6.02
2023-02-21T18:58:10.010Z,6.03
2023-02-21T19:00:42.225Z,6.05
2023-02-21T19:03:13.965Z,6.03
2023-02-21T19:05:45.575Z,6.00
2023-02-21T19:08:14.434Z,5.96
2023-02-21T19:10:46.374Z,5.92
2023-02-21T19:13:17.386Z,5.88
2023-02-21T19:16:17.121Z,5.85
2023-02-21T19:19:07.578Z,5.78
2023-02-21T19:21:46.483Z,5.76
2023-02-21T19:24:25.331Z,5.75
2023-02-21T19:26:53.825Z,5.71
2023-02-21T19:29:27.029Z,5.64
2023-02-21T19:31:56.977Z,5.55
2023-02-21T19:34:25.523Z,5.48
2023-02-21T19:36:54.073Z,5.44
2023-02-21T19:39:22.653Z,5.39
2023-02-21T19:41:51.245Z,5.33
2023-02-21T19:44:19.831Z,5.29
2023-02-21T19:46:48.854Z,5.28
2023-02-21T19:49:20.963Z,5.29
2023-02-21T19:51:54.304Z,5.32
2023-02-21T19:54:25.383Z,5.32
2023-02-21T19:56:54.011Z,5.32
2023-02-21T19:59:42.832Z,5.36
2023-02-21T20:02:13.482Z,5.37
2023-02-21T20:07:26.306Z,5.36
2023-02-21T20:09:57.758Z,5.34
2023-02-21T20:12:25.892Z,5.33
2023-02-21T20:14:56.291Z,5.34
2023-02-21T20:17:25.396Z,5.33
2023-02-21T20:20:21.687Z,5.33
2023-02-21T20:23:02.241Z,5.32
2023-02-21T20:26:03.146Z,5.29
2023-02-21T20:28:32.774Z,5.25
2023-02-21T20:31:24.752Z,5.22
2023-02-21T20:33:53.570Z,5.22
2023-02-21T20:36:30.119Z,5.20
2023-02-21T20:39:03.296Z,5.18
2023-02-21T20:41:34.449Z,5.19
2023-02-21T20:44:03.342Z,5.20
2023-02-21T20:46:35.065Z,5.20
2023-02-21T20:49:03.757Z,5.19
2023-02-21T20:51:37.279Z,5.18
2023-02-21T20:54:36.344Z,5.14
2023-02-21T20:57:13.842Z,5.07
2023-02-21T20:59:48.398Z,5.03
2023-02-21T21:02:16.790Z,4.96
2023-02-21T21:04:56.937Z,4.95
2023-02-21T21:07:37.965Z,4.95
2023-02-21T21:10:10.013Z,4.90
2023-02-21T21:12:39.616Z,4.83
2023-02-21T21:15:10.041Z,4.76
2023-02-21T21:17:39.452Z,4.71
2023-02-21T21:20:16.246Z,4.67
2023-02-21T21:22:51.306Z,4.62
2023-02-21T21:25:22.886Z,4.57
2023-02-21T21:27:56.800Z,4.53
2023-02-21T21:30:44.778Z,4.49
2023-02-21T21:33:19.213Z,4.47
2023-02-21T21:35:50.089Z,4.47
2023-02-21T21:38:19.310Z,4.48
2023-02-21T21:40:48.258Z,4.50
2023-02-21T21:43:18.346Z,4.53
2023-02-21T21:45:59.390Z,4.53
2023-02-21T21:48:35.360Z,4.53
2023-02-21T21:51:04.388Z,4.57
2023-02-21T21:53:48.783Z,4.62
2023-02-21T21:56:29.077Z,4.63
2023-02-21T21:59:09.476Z,4.63
2023-02-21T22:02:06.471Z,4.64
2023-02-21T22:05:03.472Z,4.68
2023-02-21T22:07:38.044Z,4.75
2023-02-21T22:10:12.128Z,4.80
2023-02-21T22:12:40.804Z,4.81
2023-02-21T22:15:11.800Z,4.77
2023-02-21T22:18:05.768Z,4.73
2023-02-21T22:21:00.826Z,4.68
2023-02-21T22:23:32.374Z,4.66
2023-02-21T22:26:31.538Z,4.66
2023-02-21T22:29:25.655Z,4.63
2023-02-21T22:31:59.917Z,4.62
2023-02-21T22:34:49.104Z,4.60
2023-02-21T22:37:22.919Z,4.58
2023-02-21T22:39:51.592Z,4.61
2023-02-21T22:42:20.360Z,4.62
2023-02-21T22:45:07.093Z,4.60
2023-02-21T22:47:39.445Z,4.62
2023-02-21T22:50:08.662Z,4.63
2023-02-21T22:53:01.617Z,4.62
2023-02-21T22:55:44.258Z,4.61
2023-02-21T22:58:21.417Z,4.62
2023-02-21T23:01:02.906Z,4.64
2023-02-21T23:04:00.239Z,4.64
2023-02-21T23:06:56.293Z,4.64
2023-02-21T23:09:37.741Z,4.62
2023-02-21T23:12:49.613Z,4.61
2023-02-21T23:15:57.632Z,4.63
2023-02-21T23:19:06.043Z,4.63
2023-02-21T23:22:17.488Z,4.59
2023-02-21T23:25:08.445Z,4.59
2023-02-21T23:28:23.165Z,4.60
2023-02-21T23:31:22.341Z,4.63
2023-02-21T23:34:58.085Z,4.64
2023-02-21T23:37:44.545Z,4.67
2023-02-21T23:40:41.438Z,4.69
2023-02-21T23:44:07.001Z,4.69
2023-02-21T23:47:03.337Z,4.72
2023-02-21T23:49:50.141Z,4.73
2023-02-21T23:52:36.442Z,4.73
2023-02-21T23:55:08.268Z,4.72
2023-02-21T23:58:26.226Z,4.72
